• Join FlightAware (Why Join?)
  • Login
  • US Flag 
01:22PM EDT


 

Airport Tracker/Info


-or-


 

Live Flight TrackerFlight Track Log ✈ CNS33 ✈ 05-May-2013 ✈ KMWC - KLOU

Flight Track Log - Related Links

Times and Time Zones

All times are in EDT time to prevent confusion due to time zone crossing. See the CNS33 flight status page for this flight to view local times or setup timezone preferences in your user account.

Time Position Orientation Groundspeed Altitude Reporting Facility
EDT Latitude Longitude Course Direction KTS MPH feet Rate Location/Type
07:15AM 43.1000 -88.0333 180° South 101 116 1,100  Level KMKE
07:15AM 43.0833 -88.0333 180° South 129 148 2,200 1,620 Climbing KMKE
07:16AM 43.0500 -88.0500 200° South 169 194 3,700 1,500 Climbing KMKE
07:17AM 43.0000 -88.1000 216° Southwest 174 200 5,300 1,440 Climbing KMKE
07:18AM 42.9667 -88.1500 228° Southwest 181 208 6,800 1,380 Climbing KMKE
07:20AM 42.9211 -88.1650 194° South 181 208 8,300 1,260 Climbing Chicago Center
07:21AM 42.8708 -88.1650 180° South 179 206 9,600 1,320 Climbing Chicago Center
07:22AM 42.8203 -88.1633 179° South 182 209 11,000 1,320 Climbing Chicago Center
07:23AM 42.7675 -88.1617 179° South 188 216 12,300 1,260 Climbing Chicago Center
07:24AM 42.7167 -88.1550 174° South 185 213 13,600 1,260 Climbing Chicago Center
07:25AM 42.6714 -88.1214 151° Southeast 180 207 14,900 1,320 Climbing Chicago Center
07:26AM 42.6225 -88.1008 163° South 183 211 16,300 1,260 Climbing Chicago Center
07:27AM 42.5744 -88.0817 164° South 180 207 17,500 1,080 Climbing Chicago Center
07:28AM 42.5261 -88.0589 161° South 183 211 18,500 960 Climbing Chicago Center
07:29AM 42.4811 -88.0322 156° South 178 205 19,500 960 Climbing Chicago Center
07:30AM 42.4239 -88.0089 163° South 183 211 20,500 720 Climbing Chicago Center
07:31AM 42.3742 -87.9842 160° South 188 216 21,000 240 Climbing Chicago Center
07:32AM 42.3183 -87.9619 164° South 213 245 21,000  Level Chicago Center
07:33AM 42.2575 -87.9342 161° South 229 264 21,000  Level Chicago Center
07:34AM 42.1950 -87.9067 162° South 237 273 21,000  Level Chicago Center
07:35AM 42.1325 -87.8767 160° South 239 275 21,000  Level Chicago Center
07:36AM 42.0689 -87.8489 162° South 240 276 21,000  Level Chicago Center
07:37AM 42.0061 -87.8208 162° South 239 275 21,000  Level Chicago Center
07:38AM 41.9425 -87.7908 161° South 241 277 21,000  Level Chicago Center
07:39AM 41.8800 -87.7600 160° South 240 276 21,000  Level Chicago Center
07:40AM 41.8169 -87.7292 160° South 242 278 21,000  Level Chicago Center
07:41AM 41.7533 -87.6981 160° South 243 280 21,000  Level Chicago Center
07:42AM 41.6772 -87.6619 160° South 242 278 21,000  Level Chicago Center
07:43AM 41.6133 -87.6311 160° South 243 280 21,000  Level Chicago Center
07:44AM 41.5508 -87.6008 160° South 239 275 21,000  Level Chicago Center
07:45AM 41.4900 -87.5719 160° South 234 269 21,000  Level Chicago Center
07:46AM 41.4292 -87.5428 160° South 232 267 21,000  Level Chicago Center
07:47AM 41.3692 -87.5142 160° South 230 265 21,000  Level Chicago Center
07:48AM 41.3089 -87.4853 160° South 230 265 21,000  Level Chicago Center
07:49AM 41.2489 -87.4575 161° South 230 265 21,000  Level Chicago Center
07:50AM 41.1886 -87.4283 160° South 231 266 21,000  Level Chicago Center
07:51AM 41.1281 -87.4008 161° South 231 266 21,000  Level Chicago Center
07:52AM 41.0678 -87.3722 160° South 230 265 21,000  Level Chicago Center
07:53AM 41.0078 -87.3428 160° South 231 266 21,000  Level Chicago Center
07:54AM 40.9464 -87.3147 161° South 233 268 21,000  Level Chicago Center
07:55AM 40.8739 -87.2797 160° South 233 268 21,000  Level Chicago Center
07:56AM 40.8125 -87.2525 161° South 234 269 21,000  Level Chicago Center
07:57AM 40.7531 -87.2239 160° South 229 264 21,000  Level Chicago Center
07:58AM 40.6928 -87.1964 161° South 230 265 21,000  Level Chicago Center
07:59AM 40.6317 -87.1678 160° South 234 269 21,000  Level Chicago Center
08:00AM 40.5714 -87.1400 161° South 230 265 21,000  Level Chicago Center
08:01AM 40.5103 -87.1117 161° South 232 267 21,000  Level Chicago Center
08:02AM 40.4394 -87.0778 160° South 232 267 21,000  Level Chicago Center
08:03AM 40.3794 -87.0506 161° South 230 265 21,000  Level Chicago Center
08:04AM 40.3200 -87.0228 160° South 228 262 21,000  Level Chicago Center
08:05AM 40.2600 -86.9967 162° South 229 264 21,000  Level Chicago Center
08:06AM 40.2014 -86.9689 160° South 226 260 21,000  Level Chicago Center
08:07AM 40.1419 -86.9411 160° South 228 262 21,000  Level Chicago Center
08:08AM 40.0808 -86.9125 160° South 228 262 21,000  Level Indianapolis Center
08:09AM 40.0217 -86.8864 161° South 227 261 21,000  Level Indianapolis Center
08:10AM 39.9625 -86.8589 160° South 227 261 21,000  Level Indianapolis Center
08:11AM 39.8914 -86.8275 161° South 227 261 21,000  Level Indianapolis Center
08:12AM 39.8317 -86.8000 161° South 228 262 21,000  Level Indianapolis Center
08:14AM 39.7725 -86.7736 161° South 228 262 21,000  Level Indianapolis Center
08:15AM 39.7125 -86.7458 160° South 230 265 21,000  Level Indianapolis Center
08:16AM 39.6522 -86.7200 162° South 231 266 21,000  Level Indianapolis Center
08:17AM 39.5922 -86.6928 161° South 231 266 21,000  Level Indianapolis Center
08:18AM 39.5322 -86.6650 160° South 231 266 21,000  Level Indianapolis Center
08:19AM 39.4725 -86.6383 161° South 228 262 21,000  Level Indianapolis Center
08:20AM 39.4017 -86.6061 161° South 226 260 21,000 -300 Level Indianapolis Center
08:21AM 39.3442 -86.5808 161° South 221 254 20,500 -780 Descending Indianapolis Center
08:22AM 39.2789 -86.5525 161° South 240 276 19,500 -1,080 Descending Indianapolis Center
08:23AM 39.2125 -86.5231 161° South 252 290 18,400 -1,140 Descending Indianapolis Center
08:24AM 39.1433 -86.4919 161° South 262 302 17,300 -1,140 Descending Indianapolis Center
08:25AM 39.0756 -86.4608 160° South 261 300 16,200 -1,140 Descending Indianapolis Center
08:26AM 39.0119 -86.4336 162° South 248 285 15,000 -1,200 Descending Indianapolis Center
08:27AM 38.9486 -86.4053 161° South 241 277 13,800 -1,260 Descending Indianapolis Center
08:28AM 38.8781 -86.3739 161° South 239 275 12,500 -1,260 Descending Indianapolis Center
08:29AM 38.8175 -86.3486 162° South 232 267 11,300 -1,140 Descending Indianapolis Center
08:30AM 38.7603 -86.3228 161° South 221 254 10,200 -1,140 Descending Indianapolis Center
08:31AM 38.7292 -86.2653 125° Southeast 210 242 9,000 -1,200 Descending Indianapolis Center
08:32AM 38.7019 -86.2039 120° Southeast 202 232 7,800 -1,020 Descending Indianapolis Center
08:33AM 38.6786 -86.1508 119° Southeast 182 209 7,000 -360 Descending Indianapolis Center
08:34AM 38.6589 -86.1083 121° Southeast 160 184 7,100  Climbing Indianapolis Center
08:35AM 38.6400 -86.0636 118° Southeast 148 170 7,000 -120 Descending Indianapolis Center
08:36AM 38.6181 -86.0131 119° Southeast 155 178 6,900 -600 Descending Indianapolis Center
08:37AM 38.5953 -85.9619 120° Southeast 162 186 5,900 -1,020 Descending Indianapolis Center
08:38AM 38.5717 -85.9092 120° Southeast 169 194 4,900 -960 Descending Indianapolis Center
08:39AM 38.5497 -85.8625 121° Southeast 158 182 4,000 -960 Descending Indianapolis Center
08:40AM 38.5267 -85.8114 120° Southeast 145 167 3,000 -480 Descending Indianapolis Center
08:41AM 38.5094 -85.7719 119° Southeast 136 157 3,100  Climbing Indianapolis Center
08:42AM 38.4881 -85.7203 118° Southeast 147 169 3,000 -60 Descending Indianapolis Center
08:43AM 38.4608 -85.6606 120° Southeast 170 196 3,000  Level Indianapolis Center
08:44AM 38.4294 -85.5972 122° Southeast 182 209 3,000  Level Indianapolis Center
08:47AM 38.3000 -85.5000 149° Southeast 229 264 3,000 -360 Level Louisville TRACON
08:49AM 38.2527 -85.5853 235° Southwest  Level FlightAware Approximate
08:50AM 38.2500 -85.6333 235° Southwest 149 171 1,200  Level Louisville TRACON